Time;durP1;ratioP1;P1;durP2;ratioP2;P2;SDS_P1;SDS_P2;PMS_P1;PMS_P2;Temp;Humidity;BMP_temperature;BMP_pressure;BME280_temperature;BME280_humidity;BME280_pressure;Samples;Min_cycle;Max_cycle;Signal;HPM_P1;HPM_P2
2022/06/29 00:00:14;;;;;;;4.63;4.32;;;;;;;22.86;94.22;99486.78;5070810;28;20582;-53
2022/06/29 00:02:43;;;;;;;4.65;4.38;;;;;;;22.84;94.84;99474.63;5072925;28;20200;-53
2022/06/29 00:05:13;;;;;;;4.30;4.10;;;;;;;22.79;95.40;99478.50;5072897;28;20196;-54
2022/06/29 00:07:41;;;;;;;4.90;4.53;;;;;;;22.78;95.84;99481.25;5073025;28;20200;-53
2022/06/29 00:10:10;;;;;;;4.45;4.15;;;;;;;22.68;96.99;99480.28;5073131;28;20200;-58
2022/06/29 00:12:37;;;;;;;4.60;4.28;;;;;;;22.67;97.17;99468.00;5073070;28;20200;-55
2022/06/29 00:15:05;;;;;;;6.05;4.90;;;;;;;22.71;97.51;99470.25;5071520;28;20223;-55
2022/06/29 00:17:33;;;;;;;6.72;4.55;;;;;;;22.68;97.60;99470.53;5051207;28;20200;-56
2022/06/29 00:20:01;;;;;;;5.28;4.88;;;;;;;22.69;97.88;99466.91;5053150;28;20200;-56
2022/06/29 00:22:30;;;;;;;4.88;4.53;;;;;;;22.70;98.06;99470.38;5052791;28;20201;-56
2022/06/29 00:24:57;;;;;;;4.55;4.20;;;;;;;22.64;98.99;99468.22;5052803;28;20197;-56
2022/06/29 00:27:25;;;;;;;4.60;4.35;;;;;;;22.56;99.33;99463.56;5052601;28;20277;-57
2022/06/29 00:29:53;;;;;;;4.97;4.57;;;;;;;22.45;100.00;99469.69;5052309;28;20247;-53
2022/06/29 00:32:19;;;;;;;5.38;4.55;;;;;;;22.41;100.00;99464.75;5052435;28;20597;-52
2022/06/29 00:34:46;;;;;;;4.85;4.63;;;;;;;22.37;100.00;99456.22;5052452;28;20224;-52
2022/06/29 00:37:14;;;;;;;5.25;4.47;;;;;;;22.28;100.00;99456.94;5052413;28;20204;-53
2022/06/29 00:39:42;;;;;;;4.85;4.57;;;;;;;22.23;100.00;99451.19;5052736;28;20201;-53
2022/06/29 00:42:09;;;;;;;5.15;4.72;;;;;;;22.20;100.00;99451.41;5052356;28;20193;-53
2022/06/29 00:44:36;;;;;;;5.72;5.07;;;;;;;22.19;100.00;99449.72;5052354;28;20199;-52
2022/06/29 00:47:05;;;;;;;5.07;4.30;;;;;;;22.18;100.00;99450.69;5052137;28;20203;-52
2022/06/29 00:49:34;;;;;;;5.00;4.57;;;;;;;22.18;100.00;99449.84;5052145;28;20201;-53
2022/06/29 00:52:05;;;;;;;4.88;4.57;;;;;;;22.21;100.00;99445.16;5052157;28;20291;-53
2022/06/29 00:54:35;;;;;;;4.47;4.28;;;;;;;22.15;100.00;99452.72;5052086;28;20267;-53
2022/06/29 00:57:09;;;;;;;5.00;4.60;;;;;;;22.08;100.00;99452.34;5052220;28;20207;-52
2022/06/29 00:59:44;;;;;;;5.10;4.70;;;;;;;22.06;100.00;99456.91;5052200;28;20287;-53
2022/06/29 01:02:11;;;;;;;5.05;4.68;;;;;;;22.03;100.00;99447.41;5052265;28;20201;-53
2022/06/29 01:04:39;;;;;;;6.00;4.82;;;;;;;22.07;100.00;99448.03;5052157;28;20239;-52
2022/06/29 01:07:06;;;;;;;4.38;4.05;;;;;;;22.07;100.00;99440.09;5051741;28;20201;-56
2022/06/29 01:09:33;;;;;;;6.20;4.43;;;;;;;22.08;100.00;99436.50;5052121;28;20275;-56
2022/06/29 01:12:01;;;;;;;5.10;4.70;;;;;;;22.07;100.00;99437.47;5051660;28;20203;-56
2022/06/29 01:14:29;;;;;;;4.68;4.43;;;;;;;22.08;100.00;99433.84;5051806;28;20250;-56
2022/06/29 01:16:56;;;;;;;4.15;3.95;;;;;;;21.98;99.88;99438.13;5051614;28;20228;-56
2022/06/29 01:19:23;;;;;;;5.07;4.75;;;;;;;21.92;99.25;99442.06;5051703;28;20255;-53
2022/06/29 01:21:52;;;;;;;5.47;4.97;;;;;;;21.99;96.18;99439.84;5051522;28;20580;-53
2022/06/29 01:24:23;;;;;;;4.57;4.35;;;;;;;22.02;93.60;99440.44;5051274;28;20237;-53
2022/06/29 01:26:50;;;;;;;4.85;4.47;;;;;;;22.05;92.33;99437.56;5051613;28;20679;-52
2022/06/29 01:29:18;;;;;;;5.10;4.80;;;;;;;22.11;91.21;99438.06;5051322;28;20287;-52
2022/06/29 01:31:45;;;;;;;4.82;4.53;;;;;;;22.11;90.62;99423.06;5051373;28;20258;-52
2022/06/29 01:34:12;;;;;;;4.38;3.97;;;;;;;22.24;89.94;99433.47;5051318;28;20200;-53
2022/06/29 01:36:39;;;;;;;5.15;4.70;;;;;;;22.26;89.56;99429.75;5051276;28;20236;-52
2022/06/29 01:39:06;;;;;;;4.43;4.22;;;;;;;22.27;89.14;99415.59;5051157;28;20213;-52
2022/06/29 01:41:34;;;;;;;5.38;4.20;;;;;;;22.30;89.07;99422.44;5051185;28;20203;-52
2022/06/29 01:44:01;;;;;;;4.70;4.50;;;;;;;22.27;89.36;99412.94;5051111;28;20197;-52
2022/06/29 01:46:28;;;;;;;9.32;4.00;;;;;;;22.24;89.25;99423.75;5051220;28;20208;-53
2022/06/29 01:48:55;;;;;;;5.30;4.40;;;;;;;22.26;89.33;99427.13;5050852;28;20203;-53
2022/06/29 01:51:22;;;;;;;5.13;4.65;;;;;;;22.24;89.36;99429.03;5051064;28;20207;-53
2022/06/29 01:53:49;;;;;;;4.50;4.10;;;;;;;22.18;89.44;99412.81;5050994;28;20208;-52
2022/06/29 01:56:16;;;;;;;4.50;4.10;;;;;;;22.18;89.60;99426.03;5050848;28;20228;-52
2022/06/29 01:58:45;;;;;;;4.03;3.83;;;;;;;22.13;90.02;99430.84;5051438;28;20229;-52
2022/06/29 02:01:12;;;;;;;4.40;4.00;;;;;;;22.04;90.68;99430.59;5050748;28;20291;-53
2022/06/29 02:03:40;;;;;;;4.18;3.88;;;;;;;22.09;90.13;99428.44;5050832;28;20262;-53
2022/06/29 02:06:07;;;;;;;4.82;4.43;;;;;;;22.05;91.10;99420.88;5050731;28;20199;-53
2022/06/29 02:08:34;;;;;;;4.70;4.40;;;;;;;22.11;91.33;99420.41;5050721;28;20204;-53
2022/06/29 02:11:02;;;;;;;7.55;4.40;;;;;;;22.17;91.01;99427.84;5050612;28;20215;-52
2022/06/29 02:13:29;;;;;;;4.68;4.32;;;;;;;22.18;90.98;99421.59;5050643;28;20204;-52
2022/06/29 02:15:57;;;;;;;4.93;4.40;;;;;;;22.25;90.96;99425.44;5050296;28;20226;-53
2022/06/29 02:18:24;;;;;;;6.05;4.80;;;;;;;22.20;91.36;99422.31;5050552;28;20283;-53
2022/06/29 02:20:51;;;;;;;4.28;3.97;;;;;;;22.21;91.54;99420.53;5050686;28;20677;-53
2022/06/29 02:23:18;;;;;;;5.03;4.63;;;;;;;22.14;92.23;99422.78;5050068;28;20200;-53
2022/06/29 02:25:45;;;;;;;5.10;4.80;;;;;;;22.11;92.70;99430.13;5050640;28;20638;-53
2022/06/29 02:28:12;;;;;;;4.47;4.18;;;;;;;22.02;92.95;99418.44;5050285;28;20212;-53
2022/06/29 02:36:06;;;;;;;4.68;4.47;;;;;;;21.86;94.55;99412.66;5050234;28;20223;-52
2022/06/29 02:38:33;;;;;;;4.80;4.40;;;;;;;21.85;94.21;99411.81;5050270;28;20287;-53
2022/06/29 02:40:59;;;;;;;5.18;4.82;;;;;;;21.76;95.43;99406.41;5050096;28;20218;-53
2022/06/29 02:43:26;;;;;;;4.97;4.63;;;;;;;;;;5050212;28;20192;-53
2022/06/29 02:45:53;;;;;;;4.78;4.57;;;;;;;21.68;95.77;99405.16;5050277;28;20582;-53
2022/06/29 02:48:22;;;;;;;4.80;4.50;;;;;;;21.72;95.62;99403.97;5050050;28;20199;-52
2022/06/29 02:50:49;;;;;;;4.93;4.50;;;;;;;21.69;95.41;99401.56;5050257;28;20196;-52
2022/06/29 02:53:16;;;;;;;5.82;4.75;;;;;;;21.70;95.76;99411.16;5049935;28;20207;-52
2022/06/29 02:55:43;;;;;;;5.13;4.72;;;;;;;21.59;96.04;99395.28;5049893;28;20228;-51
2022/06/29 02:58:09;;;;;;;5.35;5.00;;;;;;;21.56;96.41;99407.88;5049718;28;20228;-52
2022/06/29 03:00:36;;;;;;;5.22;4.85;;;;;;;21.59;95.99;99411.16;5049915;28;20196;-52
2022/06/29 03:03:03;;;;;;;4.90;4.60;;;;;;;21.59;95.67;99416.44;5049759;28;20205;-52
2022/06/29 03:05:32;;;;;;;5.32;4.93;;;;;;;21.55;96.42;99408.88;5049835;28;20193;-53
2022/06/29 03:07:59;;;;;;;5.03;4.82;;;;;;;21.65;96.04;99412.50;5049666;28;20197;-52
2022/06/29 03:10:26;;;;;;;5.43;4.80;;;;;;;21.63;96.11;99411.75;5040947;28;20673;-52
2022/06/29 03:12:53;;;;;;;5.00;4.70;;;;;;;21.65;95.85;99410.69;5029870;28;20197;-57
2022/06/29 03:15:20;;;;;;;5.57;5.10;;;;;;;21.65;95.88;99412.50;5029967;28;20229;-57
2022/06/29 03:17:47;;;;;;;5.40;5.10;;;;;;;21.60;95.58;99396.97;5029951;28;20584;-57
2022/06/29 03:20:14;;;;;;;5.22;4.75;;;;;;;21.64;96.08;99419.56;5029696;28;20204;-53
2022/06/29 03:22:45;;;;;;;5.30;5.00;;;;;;;21.76;95.31;99420.44;5029661;28;20201;-52
2022/06/29 03:25:13;;;;;;;5.53;5.13;;;;;;;21.80;95.26;99413.94;5030190;28;20203;-52
2022/06/29 03:27:39;;;;;;;5.15;4.85;;;;;;;21.86;94.93;99410.84;5029555;28;20193;-56
2022/06/29 03:30:07;;;;;;;6.85;5.40;;;;;;;21.92;94.57;99407.72;5029620;28;20677;-56
2022/06/29 03:32:34;;;;;;;5.15;4.75;;;;;;;22.01;94.67;99407.03;5029590;28;20241;-52
2022/06/29 03:35:02;;;;;;;5.40;5.10;;;;;;;22.18;93.35;99403.09;5030686;28;20197;-52
2022/06/29 03:37:29;;;;;;;5.80;5.18;;;;;;;22.30;92.78;99402.13;5033611;28;20201;-52
2022/06/29 03:39:58;;;;;;;6.78;4.85;;;;;;;22.44;91.48;99395.75;5033590;28;20609;-53
2022/06/29 03:42:25;;;;;;;6.05;5.30;;;;;;;22.45;90.87;99379.78;5033639;28;20670;-63
2022/06/29 03:44:52;;;;;;;6.38;5.32;;;;;;;22.53;90.71;99386.25;5033829;28;20232;-56
2022/06/29 03:47:19;;;;;;;8.52;5.93;;;;;;;22.64;91.58;99394.16;5033337;28;20212;-57
2022/06/29 03:49:45;;;;;;;5.60;5.18;;;;;;;22.72;89.97;99397.00;5033222;28;20204;-57
2022/06/29 03:52:12;;;;;;;5.72;5.22;;;;;;;22.86;89.31;99396.78;5033336;28;20660;-57
2022/06/29 03:54:39;;;;;;;6.00;4.90;;;;;;;23.15;87.29;99384.63;5035005;28;20197;-57
2022/06/29 03:57:08;;;;;;;5.80;5.25;;;;;;;24.04;82.29;99395.72;5031437;28;20228;-57
2022/06/29 03:59:34;;;;;;;5.97;5.43;;;;;;;24.76;77.96;99398.22;5031653;28;20205;-56
2022/06/29 04:02:01;;;;;;;5.03;4.63;;;;;;;25.44;73.40;99407.09;5039221;28;20197;-57
2022/06/29 04:04:28;;;;;;;8.82;5.20;;;;;;;26.68;67.04;99415.72;5040452;28;20204;-56
2022/06/29 04:06:55;;;;;;;4.93;4.63;;;;;;;27.88;61.02;99418.88;5041883;28;25070;-57
2022/06/29 04:09:22;;;;;;;5.20;4.72;;;;;;;28.96;56.86;99421.75;5042520;28;25156;-57
2022/06/29 04:11:56;;;;;;;4.93;4.63;;;;;;;30.26;51.78;99424.41;5040729;28;20694;-57
2022/06/29 04:14:26;;;;;;;7.53;4.40;;;;;;;31.35;48.59;99421.72;5040204;28;20200;-57
2022/06/29 04:16:55;;;;;;;5.07;4.03;;;;;;;31.94;46.63;99422.72;5039990;28;20221;-58
2022/06/29 04:19:22;;;;;;;5.00;4.50;;;;;;;32.92;43.66;99414.38;5040157;28;20232;-58
2022/06/29 04:21:50;;;;;;;4.63;4.22;;;;;;;33.90;41.39;99410.97;5047411;28;20205;-58
2022/06/29 04:24:18;;;;;;;4.07;3.72;;;;;;;33.82;41.06;99408.44;5051087;28;20223;-58
2022/06/29 04:26:45;;;;;;;6.38;4.22;;;;;;;34.11;40.54;99420.84;5051723;28;20196;-58
2022/06/29 04:29:12;;;;;;;14.77;4.63;;;;;;;34.84;39.29;99414.00;5036759;28;20207;-58
2022/06/29 04:31:41;;;;;;;4.82;4.35;;;;;;;35.57;37.79;99429.28;5040509;28;20225;-58
2022/06/29 04:34:08;;;;;;;4.10;3.90;;;;;;;35.39;38.01;99420.16;5038802;28;20189;-58
2022/06/29 04:36:38;;;;;;;6.10;4.00;;;;;;;36.18;36.37;99422.81;5030728;28;20232;-58
2022/06/29 04:39:05;;;;;;;4.65;3.90;;;;;;;36.76;35.20;99428.31;5040721;28;20225;-58
2022/06/29 04:41:32;;;;;;;8.43;4.05;;;;;;;37.29;33.95;99426.97;5039019;28;20272;-58
2022/06/29 04:43:59;;;;;;;10.15;4.00;;;;;;;38.32;32.95;99429.22;5037780;28;20197;-60
2022/06/29 04:46:26;;;;;;;4.55;3.80;;;;;;;38.47;32.08;99437.81;5033235;28;20188;-57
2022/06/29 04:48:56;;;;;;;4.85;4.50;;;;;;;38.89;31.53;99440.66;5041555;28;20196;-59
2022/06/29 04:51:25;;;;;;;4.63;4.22;;;;;;;38.53;32.22;99436.94;5031721;28;20282;-60
2022/06/29 04:53:54;;;;;;;7.72;4.25;;;;;;;39.13;31.37;99440.56;5045330;28;20795;-58
2022/06/29 04:56:22;;;;;;;3.85;3.65;;;;;;;39.35;30.83;99445.44;5047914;28;20255;-57
2022/06/29 04:58:51;;;;;;;12.13;4.38;;;;;;;38.93;31.32;99447.28;5051756;28;20601;-57
2022/06/29 05:01:18;;;;;;;5.13;4.70;;;;;;;39.32;30.67;99448.63;5051869;28;20200;-57
2022/06/29 05:03:45;;;;;;;4.30;3.97;;;;;;;39.29;30.92;99454.50;5051817;28;20196;-57
2022/06/29 05:06:14;;;;;;;4.10;3.72;;;;;;;38.95;31.44;99443.25;5051887;28;20279;-57
2022/06/29 05:08:41;;;;;;;4.70;4.30;;;;;;;39.65;30.62;99440.81;5051812;28;20192;-57
2022/06/29 05:11:08;;;;;;;5.53;4.55;;;;;;;39.91;29.78;99437.66;5051508;28;20201;-57
2022/06/29 05:13:35;;;;;;;8.48;4.45;;;;;;;39.77;30.14;99449.78;5051637;28;20200;-57
2022/06/29 05:16:02;;;;;;;6.18;4.15;;;;;;;40.07;29.71;99457.06;5051663;28;20226;-58
2022/06/29 05:18:29;;;;;;;4.40;4.20;;;;;;;40.60;29.09;99455.00;5038593;28;20220;-58
2022/06/29 05:20:56;;;;;;;7.15;4.60;;;;;;;41.07;28.42;99456.75;5031374;28;20220;-57
2022/06/29 05:23:25;;;;;;;6.88;4.25;;;;;;;41.35;28.08;99448.56;5031019;28;20319;-57
2022/06/29 05:25:52;;;;;;;7.90;4.45;;;;;;;41.74;27.75;99445.97;5031259;28;20609;-59
2022/06/29 05:28:19;;;;;;;4.00;3.70;;;;;;;42.04;27.36;99450.03;5030882;28;20308;-57
2022/06/29 05:30:46;;;;;;;7.95;4.10;;;;;;;41.25;27.84;99451.94;5030590;28;20691;-58
2022/06/29 05:33:13;;;;;;;5.68;4.05;;;;;;;41.12;28.12;99456.84;5030950;28;20720;-58
2022/06/29 05:35:40;;;;;;;4.47;3.97;;;;;;;41.27;27.77;99448.97;5030905;28;20647;-56
2022/06/29 05:38:07;;;;;;;8.15;5.10;;;;;;;41.10;28.19;99446.19;5030795;28;20604;-58
2022/06/29 05:40:36;;;;;;;4.30;4.00;;;;;;;41.74;27.77;99443.25;5031063;28;20689;-58
2022/06/29 05:43:03;;;;;;;4.53;4.10;;;;;;;41.58;27.08;99439.44;5030878;28;20227;-57
2022/06/29 05:45:31;;;;;;;6.68;4.07;;;;;;;41.55;27.54;99443.50;5030433;28;20220;-57
2022/06/29 05:47:58;;;;;;;7.78;5.05;;;;;;;41.81;26.85;99439.28;5048967;28;20227;-57
2022/06/29 05:50:25;;;;;;;6.70;4.28;;;;;;;42.18;27.09;99452.41;5050576;28;20226;-57
2022/06/29 05:52:52;;;;;;;16.30;4.78;;;;;;;42.40;27.04;99456.00;5050602;28;20323;-57
2022/06/29 05:55:19;;;;;;;10.27;4.60;;;;;;;42.09;26.76;99460.19;5050585;28;20223;-56
2022/06/29 05:57:48;;;;;;;15.52;5.53;;;;;;;42.02;27.00;99452.16;5041794;28;20234;-57
2022/06/29 06:00:15;;;;;;;10.90;5.90;;;;;;;41.85;27.82;99453.25;5040334;28;20255;-57
2022/06/29 06:02:42;;;;;;;19.70;5.90;;;;;;;41.33;27.55;99453.44;5040915;28;20231;-57
2022/06/29 06:05:09;;;;;;;25.00;6.28;;;;;;;41.31;28.28;99450.16;5037941;28;20220;-57
2022/06/29 06:07:36;;;;;;;20.73;5.85;;;;;;;40.78;28.48;99454.00;5040053;28;20282;-57
2022/06/29 06:10:04;;;;;;;16.17;5.05;;;;;;;40.34;28.97;99447.34;5032686;28;20224;-57
2022/06/29 06:12:32;;;;;;;5.70;4.65;;;;;;;40.37;29.24;99451.50;5030336;28;20221;-56
2022/06/29 06:15:01;;;;;;;6.90;5.28;;;;;;;40.85;28.63;99451.16;5045503;28;20219;-57
2022/06/29 06:17:28;;;;;;;8.75;6.53;;;;;;;40.48;28.94;99443.31;5050123;28;20215;-58
2022/06/29 06:19:56;;;;;;;5.53;4.97;;;;;;;40.38;29.20;99447.72;5046243;28;20528;-56
2022/06/29 06:22:23;;;;;;;4.43;4.03;;;;;;;40.50;29.19;99448.53;5050224;28;20718;-58
2022/06/29 06:24:50;;;;;;;5.18;4.80;;;;;;;40.56;29.15;99450.25;5050674;28;20278;-57
2022/06/29 06:27:17;;;;;;;11.43;10.00;;;;;;;40.43;29.09;99448.63;5050024;28;20199;-58
2022/06/29 06:29:45;;;;;;;5.50;4.72;;;;;;;39.88;29.79;99448.19;5050353;28;20200;-58
2022/06/29 06:32:13;;;;;;;5.07;4.20;;;;;;;39.39;30.45;99450.19;5045413;28;20228;-58
2022/06/29 06:34:40;;;;;;;4.95;4.53;;;;;;;39.00;30.76;99450.75;5030314;28;20200;-57
2022/06/29 06:37:07;;;;;;;7.05;5.72;;;;;;;38.98;30.61;99455.59;5031601;28;20229;-58
2022/06/29 06:39:34;;;;;;;4.80;4.40;;;;;;;39.06;30.75;99449.81;5047019;28;20345;-57
2022/06/29 06:42:02;;;;;;;9.70;5.25;;;;;;;39.00;30.43;99446.16;5047798;28;20202;-57
2022/06/29 06:44:29;;;;;;;6.25;4.78;;;;;;;39.02;30.26;99452.19;5049274;28;20683;-57
2022/06/29 06:46:56;;;;;;;7.20;5.30;;;;;;;38.81;31.34;99445.34;5029532;28;20228;-56
2022/06/29 06:49:25;;;;;;;6.50;4.95;;;;;;;38.58;31.25;99450.66;5038663;28;20635;-57
2022/06/29 06:51:52;;;;;;;4.68;4.28;;;;;;;38.29;30.81;99446.75;5049277;28;20228;-56
2022/06/29 06:54:19;;;;;;;4.93;4.50;;;;;;;38.11;31.22;99438.63;5049571;28;20739;-57
2022/06/29 06:56:46;;;;;;;4.10;3.83;;;;;;;38.00;31.55;99444.75;5050263;28;20216;-57
2022/06/29 06:59:13;;;;;;;4.88;4.57;;;;;;;37.29;32.73;99445.91;5049895;28;20203;-57
2022/06/29 07:01:40;;;;;;;5.38;4.47;;;;;;;37.03;33.12;99449.56;5049719;28;20200;-57
2022/06/29 07:04:07;;;;;;;4.88;4.45;;;;;;;36.90;32.95;99446.13;5050006;28;20612;-58
2022/06/29 07:06:35;;;;;;;5.57;4.90;;;;;;;36.90;32.94;99438.84;5049835;28;20203;-57
2022/06/29 07:09:03;;;;;;;5.72;4.13;;;;;;;37.39;32.37;99443.56;5049692;28;20201;-58
2022/06/29 07:11:30;;;;;;;7.25;4.80;;;;;;;37.58;32.08;99440.94;5049637;28;20196;-57
2022/06/29 07:13:57;;;;;;;8.82;5.35;;;;;;;37.31;32.72;99445.69;5049573;28;20200;-57
2022/06/29 07:16:24;;;;;;;6.05;5.40;;;;;;;37.13;33.56;99438.31;5049444;28;20228;-57
2022/06/29 07:18:51;;;;;;;7.68;5.70;;;;;;;37.37;32.84;99431.28;5049779;28;20200;-58
2022/06/29 07:21:18;;;;;;;6.28;5.00;;;;;;;37.51;32.83;99440.13;5049452;28;20207;-56
2022/06/29 07:23:46;;;;;;;5.13;4.72;;;;;;;37.32;32.72;99440.06;5049903;28;20204;-57
2022/06/29 07:26:13;;;;;;;4.88;4.55;;;;;;;37.53;32.89;99444.28;5049481;28;20198;-58
2022/06/29 07:28:40;;;;;;;4.65;4.35;;;;;;;37.93;32.79;99443.97;5049455;28;20199;-57
2022/06/29 07:31:07;;;;;;;5.07;4.78;;;;;;;37.89;31.83;99449.03;5049203;28;20232;-58
2022/06/29 07:33:34;;;;;;;5.20;4.20;;;;;;;37.79;32.51;99446.00;5048786;28;20629;-57
2022/06/29 07:36:01;;;;;;;4.65;4.30;;;;;;;38.02;31.76;99427.22;5046619;28;20200;-58
2022/06/29 07:38:28;;;;;;;6.18;4.90;;;;;;;38.19;31.74;99432.06;5029496;28;20224;-59
2022/06/29 07:40:58;;;;;;;5.18;4.78;;;;;;;38.20;31.41;99434.56;5034017;28;20283;-58
2022/06/29 07:43:26;;;;;;;4.85;4.60;;;;;;;38.33;31.60;99436.31;5047379;28;20646;-57
2022/06/29 07:45:53;;;;;;;4.30;4.00;;;;;;;38.55;31.85;99434.00;5049595;28;20626;-58
2022/06/29 07:48:20;;;;;;;5.38;4.43;;;;;;;37.99;32.04;99435.78;5049543;28;20719;-58
2022/06/29 07:50:47;;;;;;;5.35;4.72;;;;;;;37.97;31.95;99428.94;5049440;28;20582;-59
2022/06/29 07:53:14;;;;;;;6.97;5.13;;;;;;;38.29;31.45;99437.78;5049395;28;20672;-58
2022/06/29 07:55:44;;;;;;;5.13;4.53;;;;;;;38.26;31.95;99438.28;5049251;28;20533;-58
2022/06/29 07:58:13;;;;;;;8.80;4.78;;;;;;;37.40;32.10;99431.69;5049518;28;20607;-58
2022/06/29 08:00:40;;;;;;;5.47;4.50;;;;;;;38.13;31.54;99428.41;5049264;28;20196;-58
2022/06/29 08:03:07;;;;;;;5.18;3.90;;;;;;;38.44;29.33;99430.13;5049519;28;20569;-58
2022/06/29 08:05:34;;;;;;;8.05;4.18;;;;;;;39.04;29.32;99441.13;5049251;28;20206;-58
2022/06/29 08:08:01;;;;;;;7.25;4.47;;;;;;;39.65;28.64;99442.69;5039746;28;20271;-57
2022/06/29 08:10:29;;;;;;;12.25;4.80;;;;;;;40.00;27.27;99443.56;5035952;28;20591;-57
2022/06/29 08:12:56;;;;;;;5.28;4.22;;;;;;;39.63;27.71;99447.53;5029885;28;20212;-58
2022/06/29 08:15:25;;;;;;;8.15;4.40;;;;;;;39.01;28.06;99436.97;5036929;28;20192;-58
2022/06/29 08:17:52;;;;;;;5.40;4.50;;;;;;;39.70;27.73;99431.97;5037196;28;20213;-58
2022/06/29 08:20:19;;;;;;;4.07;3.78;;;;;;;40.49;25.83;99444.13;5037469;28;20239;-58
2022/06/29 08:22:46;;;;;;;5.32;4.18;;;;;;;40.24;26.30;99438.94;5042264;28;20291;-57
2022/06/29 08:25:14;;;;;;;3.90;3.67;;;;;;;40.57;26.27;99449.19;5040674;28;20197;-57
2022/06/29 08:27:42;;;;;;;4.18;3.95;;;;;;;40.90;26.03;99446.63;5040665;28;20580;-57
2022/06/29 08:30:11;;;;;;;4.30;4.00;;;;;;;41.29;25.70;99452.28;5041165;28;20200;-57
2022/06/29 08:32:41;;;;;;;4.88;4.38;;;;;;;40.83;25.79;99445.13;5042151;28;20251;-58
2022/06/29 08:35:10;;;;;;;3.72;3.53;;;;;;;40.69;25.62;99449.16;5042179;28;20188;-58
2022/06/29 08:37:37;;;;;;;4.15;3.92;;;;;;;40.75;25.56;99448.25;5042382;28;20235;-58
2022/06/29 08:40:05;;;;;;;13.85;4.72;;;;;;;39.46;26.39;99442.78;5040748;28;20193;-58
2022/06/29 08:42:34;;;;;;;4.55;4.15;;;;;;;38.32;27.42;99445.50;5043956;28;20206;-57
2022/06/29 08:45:01;;;;;;;4.88;4.47;;;;;;;38.46;28.68;99434.28;5041815;28;20228;-58
2022/06/29 08:47:28;;;;;;;7.30;4.50;;;;;;;38.66;28.37;99444.06;5041722;28;20275;-57
2022/06/29 08:49:57;;;;;;;8.02;4.90;;;;;;;38.49;28.73;99436.50;5038440;28;20195;-57
2022/06/29 08:52:26;;;;;;;6.47;4.30;;;;;;;38.30;29.10;99447.59;5041489;28;20280;-57
2022/06/29 08:54:55;;;;;;;7.85;4.43;;;;;;;38.03;29.31;99431.59;5038498;28;20192;-56
2022/06/29 08:57:23;;;;;;;4.65;4.20;;;;;;;37.88;28.66;99441.94;5032069;28;20224;-57
2022/06/29 08:59:54;;;;;;;7.90;4.78;;;;;;;36.93;29.12;99442.97;5032674;28;20564;-56
2022/06/29 09:02:21;;;;;;;5.88;4.40;;;;;;;36.76;30.10;99444.53;5032420;28;20565;-57
2022/06/29 09:04:48;;;;;;;4.78;4.20;;;;;;;37.08;30.85;99441.66;5032233;28;20231;-57
2022/06/29 09:07:17;;;;;;;4.50;4.10;;;;;;;37.13;30.02;99454.53;5031838;28;20201;-57
2022/06/29 09:10:01;;;;;;;6.00;4.30;;;;;;;36.55;30.61;99453.75;5031915;28;20236;-56
2022/06/29 09:12:29;;;;;;;5.55;4.38;;;;;;;35.45;30.26;99451.69;5031802;28;20236;-56
2022/06/29 09:14:56;;;;;;;4.30;4.10;;;;;;;35.52;31.32;99441.75;5031756;28;20197;-56
2022/06/29 09:17:24;;;;;;;6.95;3.53;;;;;;;35.96;30.55;99442.00;5031870;28;20225;-56
2022/06/29 09:19:53;;;;;;;3.95;3.28;;;;;;;35.91;29.34;99459.84;5031834;28;20240;-57
2022/06/29 09:22:22;;;;;;;4.65;3.47;;;;;;;36.19;27.54;99440.69;5031592;28;20207;-57
2022/06/29 09:24:51;;;;;;;7.90;3.80;;;;;;;36.41;29.39;99444.84;5031710;28;20288;-57
2022/06/29 09:27:18;;;;;;;6.30;3.75;;;;;;;36.82;27.51;99458.00;5031415;28;20698;-57
2022/06/29 09:29:46;;;;;;;3.85;3.40;;;;;;;36.91;26.81;99455.91;5031484;28;20201;-57
2022/06/29 09:32:16;;;;;;;5.95;3.20;;;;;;;36.90;27.61;99457.78;5031185;28;20750;-57
2022/06/29 09:34:45;;;;;;;5.18;2.45;;;;;;;36.81;25.87;99466.34;5031646;28;20219;-56
2022/06/29 09:37:14;;;;;;;3.35;3.05;;;;;;;36.42;26.58;99468.13;5031495;28;20223;-57
2022/06/29 09:39:46;;;;;;;2.90;2.80;;;;;;;35.90;26.53;99461.72;5045780;28;20232;-56
2022/06/29 09:42:15;;;;;;;3.30;3.00;;;;;;;35.95;25.54;99463.81;5040515;28;20201;-56
2022/06/29 09:44:42;;;;;;;3.08;2.80;;;;;;;36.16;25.64;99460.03;5046087;28;20291;-56
2022/06/29 09:47:12;;;;;;;3.92;3.10;;;;;;;35.47;26.84;99450.47;5039307;28;20196;-57
2022/06/29 09:49:39;;;;;;;3.63;3.30;;;;;;;35.59;27.23;99456.09;5039402;28;20200;-56
2022/06/29 09:52:07;;;;;;;4.43;3.25;;;;;;;36.14;27.21;99448.59;5040885;28;20662;-55
2022/06/29 09:54:39;;;;;;;3.65;3.45;;;;;;;36.01;26.93;99449.44;5039550;28;20673;-57
2022/06/29 09:57:09;;;;;;;4.63;3.63;;;;;;;35.95;27.55;99445.72;5038587;28;20588;-55
2022/06/29 10:02:36;;;;;;;5.15;3.85;;;;;;;36.17;28.58;99440.91;5044255;28;20196;-56
2022/06/29 10:05:06;;;;;;;3.72;3.42;;;;;;;36.18;28.44;99442.56;5028778;28;20221;-56
2022/06/29 10:07:35;;;;;;;4.32;3.90;;;;;;;35.62;28.75;99443.00;5037967;28;20199;-56
2022/06/29 10:10:05;;;;;;;5.28;3.60;;;;;;;35.71;29.62;99440.94;5038490;28;20223;-57
2022/06/29 10:15:55;;;;;;;4.30;3.78;;;;;;;35.12;30.16;99449.75;5040358;28;20286;-55
2022/06/29 10:18:48;;;;;;;5.80;4.38;;;;;;;35.21;29.53;99432.34;5040356;28;21201;-56
2022/06/29 10:21:19;;;;;;;8.65;4.15;;;;;;;35.19;29.94;99439.00;5039260;28;20201;-56
2022/06/29 10:23:47;;;;;;;3.70;3.50;;;;;;;34.54;30.64;99438.50;5037924;28;20692;-57
2022/06/29 10:26:43;;;;;;;7.30;3.80;;;;;;;34.20;31.49;99439.34;5039410;28;20196;-56
2022/06/29 10:29:31;;;;;;;4.07;3.85;;;;;;;33.83;31.68;99429.78;4997100;28;20192;-56
2022/06/29 10:32:22;;;;;;;3.83;3.63;;;;;;;34.05;31.71;99429.72;5039073;28;20242;-57
2022/06/29 10:35:07;;;;;;;7.13;3.78;;;;;;;34.05;33.70;99421.63;5038520;28;20205;-56
2022/06/29 10:37:46;;;;;;;4.40;4.10;;;;;;;34.08;32.00;99418.56;5038891;28;20224;-57
2022/06/29 10:40:18;;;;;;;7.75;4.10;;;;;;;33.75;34.03;99418.34;5038612;28;20199;-57
2022/06/29 10:45:39;;;;;;;4.18;3.97;;;;;;;33.60;34.03;99398.69;5038022;28;20196;-56
2022/06/29 10:48:14;;;;;;;5.97;3.97;;;;;;;33.75;36.16;99411.06;5037736;28;20200;-56
2022/06/29 10:50:42;;;;;;;9.35;4.40;;;;;;;33.84;35.12;99406.38;5037849;28;20208;-56
2022/06/29 10:53:10;;;;;;;6.28;4.05;;;;;;;33.55;35.22;99404.66;5038350;28;20678;-57
2022/06/29 10:55:38;;;;;;;4.78;4.00;;;;;;;33.37;32.72;99404.31;5038702;28;20204;-55
2022/06/29 10:58:06;;;;;;;6.93;4.93;;;;;;;33.23;33.06;99408.72;5038286;28;20649;-55
2022/06/29 11:00:36;;;;;;;7.90;5.13;;;;;;;33.07;33.50;99409.75;5035997;28;20193;-56
2022/06/29 11:03:18;;;;;;;9.52;5.63;;;;;;;33.02;33.91;99406.81;5037377;28;20232;-56
2022/06/29 11:14:03;;;;;;;6.80;6.20;;;;;;;32.38;32.56;99409.34;5031463;28;20262;-56
2022/06/29 11:16:40;;;;;;;7.63;6.93;;;;;;;32.45;33.73;99406.75;5040479;28;20193;-56
2022/06/29 11:19:08;;;;;;;5.63;5.20;;;;;;;32.40;33.86;99412.66;5039461;28;20721;-57
2022/06/29 11:21:35;;;;;;;7.55;5.07;;;;;;;32.38;35.21;99398.59;5036868;28;20288;-55
2022/06/29 11:24:04;;;;;;;5.28;4.90;;;;;;;32.46;35.84;99395.81;5037419;28;20201;-56
2022/06/29 11:26:33;;;;;;;6.43;5.03;;;;;;;32.44;34.01;99400.53;5037833;28;20223;-56
2022/06/29 11:29:00;;;;;;;6.20;4.40;;;;;;;32.58;34.37;99395.34;5039128;28;20189;-57
2022/06/29 11:31:28;;;;;;;4.97;4.18;;;;;;;32.47;36.25;99389.41;5035484;28;20551;-55
2022/06/29 11:33:56;;;;;;;4.22;3.83;;;;;;;32.47;34.90;99396.66;5049156;28;20203;-55
2022/06/29 11:36:27;;;;;;;4.53;4.20;;;;;;;32.37;34.72;99378.13;5039596;28;20288;-56
2022/06/29 11:38:55;;;;;;;4.50;3.97;;;;;;;32.05;36.55;99381.19;5037699;28;20860;-56
2022/06/29 11:41:25;;;;;;;4.85;4.43;;;;;;;32.09;34.90;99385.16;5042645;28;20577;-56
2022/06/29 11:44:05;;;;;;;5.07;4.60;;;;;;;32.22;36.30;99382.69;5039691;28;20205;-55
2022/06/29 11:46:35;;;;;;;5.53;4.55;;;;;;;32.17;35.26;99376.19;5039559;28;20669;-56
2022/06/29 11:51:57;;;;;;;7.53;4.32;;;;;;;32.58;35.25;99381.91;5038907;28;20199;-56
2022/06/29 11:54:38;;;;;;;5.57;4.15;;;;;;;32.63;34.78;99374.09;5038204;28;20200;-55
2022/06/29 11:57:10;;;;;;;5.25;4.72;;;;;;;32.79;35.72;99368.53;5041280;28;20199;-56
2022/06/29 11:59:39;;;;;;;4.38;4.07;;;;;;;33.00;34.98;99365.00;5041765;28;20828;-56
2022/06/29 12:02:07;;;;;;;4.68;4.25;;;;;;;33.17;34.81;99367.25;5043247;28;20189;-56
2022/06/29 12:04:35;;;;;;;5.22;4.13;;;;;;;33.10;32.89;99363.66;5043148;28;20604;-55